Time;durP1;ratioP1;P1;durP2;ratioP2;P2;SDS_P1;SDS_P2;PMS_P1;PMS_P2;Temp;Humidity;BMP_temperature;BMP_pressure;BME280_temperature;BME280_humidity;BME280_pressure;Samples;Min_cycle;Max_cycle;Signal;HPM_P1;HPM_P2
2022/03/02 00:02:03;;;;;;;;;;;5.70;44.70;;;;;;5076291;28;20003;-60
2022/03/02 00:04:28;;;;;;;;;;;5.80;44.70;;;;;;5076196;28;20006;-60
2022/03/02 00:06:54;;;;;;;;;;;5.80;44.40;;;;;;5076155;28;19912;-60
2022/03/02 00:09:19;;;;;;;;;;;5.80;44.60;;;;;;5075942;28;19909;-60
2022/03/02 00:11:45;;;;;;;;;;;5.60;44.70;;;;;;5083762;28;19915;-63
2022/03/02 00:14:11;;;;;;;;;;;5.80;43.70;;;;;;5085784;28;19916;-60
2022/03/02 00:16:36;;;;;;;;;;;5.70;43.80;;;;;;5086169;28;19909;-61
2022/03/02 00:19:03;;;;;;;;;;;5.80;43.90;;;;;;5086101;28;19908;-60
2022/03/02 00:21:28;;;;;;;;;;;5.90;43.70;;;;;;5086653;28;19927;-60
2022/03/02 00:23:54;;;;;;;;;;;5.80;43.50;;;;;;5087565;28;19913;-60
2022/03/02 00:26:20;;;;;;;;;;;5.60;44.50;;;;;;5081341;28;19908;-61
2022/03/02 00:28:46;;;;;;;;;;;5.60;43.90;;;;;;5085069;28;19939;-60
2022/03/02 00:31:11;;;;;;;;;;;5.80;43.40;;;;;;5077676;28;19909;-60
2022/03/02 00:33:37;;;;;;;;;;;5.80;43.60;;;;;;5076100;28;19916;-62
2022/03/02 00:36:03;;;;;;;;;;;5.70;43.40;;;;;;5075992;28;19955;-60
2022/03/02 00:38:28;;;;;;;;;;;5.60;43.80;;;;;;5075671;28;19909;-62
2022/03/02 00:40:54;;;;;;;;;;;5.60;43.40;;;;;;5075817;28;19950;-60
2022/03/02 00:43:20;;;;;;;;;;;5.80;43.70;;;;;;5075694;28;19963;-60
2022/03/02 00:45:46;;;;;;;;;;;5.90;43.30;;;;;;5075272;28;19908;-60
2022/03/02 00:48:11;;;;;;;;;;;5.80;42.60;;;;;;5075685;28;19908;-60
2022/03/02 00:50:37;;;;;;;;;;;5.80;43.50;;;;;;5075571;28;19915;-60
2022/03/02 00:53:05;;;;;;;;;;;5.80;43.60;;;;;;5075106;28;19916;-60
2022/03/02 00:55:31;;;;;;;;;;;5.70;44.30;;;;;;5075079;28;19908;-60
2022/03/02 00:57:57;;;;;;;;;;;5.60;44.40;;;;;;5075130;28;19954;-60
2022/03/02 01:00:23;;;;;;;;;;;5.70;43.80;;;;;;5075125;28;20356;-61
2022/03/02 01:02:48;;;;;;;;;;;5.80;43.50;;;;;;5075187;28;19908;-60
2022/03/02 01:05:14;;;;;;;;;;;5.80;43.50;;;;;;5074761;28;20303;-60
2022/03/02 01:07:40;;;;;;;;;;;5.80;44.00;;;;;;5075150;28;19908;-60
2022/03/02 01:10:06;;;;;;;;;;;5.80;42.90;;;;;;5074914;28;19909;-62
2022/03/02 01:12:32;;;;;;;;;;;5.90;43.40;;;;;;5074501;28;19948;-61
2022/03/02 01:14:58;;;;;;;;;;;5.80;43.10;;;;;;5074990;28;19920;-60
2022/03/02 01:17:24;;;;;;;;;;;6.00;43.10;;;;;;5074750;28;19912;-60
2022/03/02 01:19:49;;;;;;;;;;;6.00;42.80;;;;;;5074795;28;20272;-60
2022/03/02 01:22:15;;;;;;;;;;;5.90;42.80;;;;;;5074675;28;20279;-60
2022/03/02 01:24:41;;;;;;;;;;;5.80;43.30;;;;;;5074950;28;20379;-60
2022/03/02 01:27:07;;;;;;;;;;;5.60;43.20;;;;;;5074785;28;19908;-60
2022/03/02 01:29:35;;;;;;;;;;;5.50;43.70;;;;;;5074595;28;19916;-60
2022/03/02 01:32:02;;;;;;;;;;;5.50;43.90;;;;;;5074002;28;19908;-60
2022/03/02 01:34:28;;;;;;;;;;;5.50;43.80;;;;;;5074241;28;19916;-60
2022/03/02 01:36:53;;;;;;;;;;;5.40;43.70;;;;;;5074449;28;19919;-61
2022/03/02 01:39:19;;;;;;;;;;;5.50;43.70;;;;;;5056303;28;19908;-60
2022/03/02 01:41:45;;;;;;;;;;;5.50;43.70;;;;;;5076192;28;20007;-60
2022/03/02 01:44:11;;;;;;;;;;;5.70;43.30;;;;;;5077985;28;20257;-59
2022/03/02 01:46:37;;;;;;;;;;;5.70;43.10;;;;;;5077397;28;19923;-60
2022/03/02 01:49:03;;;;;;;;;;;5.70;42.80;;;;;;5075713;28;19909;-60
2022/03/02 01:51:29;;;;;;;;;;;5.90;41.80;;;;;;5075785;28;19914;-59
2022/03/02 01:53:54;;;;;;;;;;;6.10;41.80;;;;;;5075072;28;19916;-61
2022/03/02 01:56:20;;;;;;;;;;;6.20;41.40;;;;;;5056048;28;20409;-60
2022/03/02 01:58:46;;;;;;;;;;;6.00;41.60;;;;;;5074016;28;19909;-62
2022/03/02 02:01:12;;;;;;;;;;;6.00;41.70;;;;;;5074000;28;19908;-60
2022/03/02 02:03:38;;;;;;;;;;;6.10;41.80;;;;;;5074083;28;19916;-60
2022/03/02 02:06:04;;;;;;;;;;;6.10;41.60;;;;;;5074011;28;19918;-60
2022/03/02 02:08:30;;;;;;;;;;;6.00;41.70;;;;;;5074000;28;19909;-60
2022/03/02 02:10:56;;;;;;;;;;;6.00;41.50;;;;;;5074114;28;19908;-60
2022/03/02 02:13:23;;;;;;;;;;;5.90;41.70;;;;;;5073845;28;19986;-60
2022/03/02 02:15:49;;;;;;;;;;;5.90;42.20;;;;;;5073815;28;20311;-60
2022/03/02 02:18:14;;;;;;;;;;;6.00;41.20;;;;;;5074045;28;19919;-60
2022/03/02 02:20:40;;;;;;;;;;;5.90;41.80;;;;;;5073651;28;20364;-60
2022/03/02 02:23:06;;;;;;;;;;;6.00;41.60;;;;;;5073706;28;19909;-58
2022/03/02 02:25:31;;;;;;;;;;;5.90;41.50;;;;;;5073363;28;19908;-67
2022/03/02 02:27:57;;;;;;;;;;;5.90;42.40;;;;;;5073946;28;19912;-61
2022/03/02 02:30:23;;;;;;;;;;;5.80;42.10;;;;;;5074260;28;19908;-58
2022/03/02 02:32:49;;;;;;;;;;;5.70;42.50;;;;;;5073636;28;19995;-60
2022/03/02 02:35:14;;;;;;;;;;;5.60;42.60;;;;;;5073571;28;20055;-60
2022/03/02 02:37:40;;;;;;;;;;;5.70;42.40;;;;;;5073550;28;19917;-64
2022/03/02 02:40:07;;;;;;;;;;;5.70;42.00;;;;;;5073563;28;20061;-60
2022/03/02 02:42:34;;;;;;;;;;;5.70;42.40;;;;;;5073483;28;19956;-60
2022/03/02 02:44:59;;;;;;;;;;;5.60;42.40;;;;;;5076931;28;19916;-60
2022/03/02 02:47:25;;;;;;;;;;;5.70;42.50;;;;;;5077886;28;19909;-60
2022/03/02 02:49:51;;;;;;;;;;;5.60;42.40;;;;;;5077838;28;19915;-60
2022/03/02 02:52:16;;;;;;;;;;;5.60;42.50;;;;;;5059464;28;20272;-61
2022/03/02 02:54:42;;;;;;;;;;;5.60;42.40;;;;;;5077257;28;19924;-61
2022/03/02 02:57:08;;;;;;;;;;;5.70;42.50;;;;;;5077303;28;20367;-60
2022/03/02 02:59:34;;;;;;;;;;;5.70;42.00;;;;;;5077635;28;19916;-59
2022/03/02 03:01:59;;;;;;;;;;;5.70;42.00;;;;;;5077403;28;19944;-62
2022/03/02 03:04:25;;;;;;;;;;;5.70;41.90;;;;;;5077453;28;19908;-65
2022/03/02 03:06:51;;;;;;;;;;;5.70;41.30;;;;;;5077199;28;20137;-60
2022/03/02 03:09:16;;;;;;;;;;;5.70;41.50;;;;;;5077037;28;20386;-64
2022/03/02 03:11:42;;;;;;;;;;;5.70;41.00;;;;;;5077507;28;19919;-63
2022/03/02 03:14:09;;;;;;;;;;;5.80;41.00;;;;;;5077223;28;19923;-62
2022/03/02 03:16:34;;;;;;;;;;;5.80;40.80;;;;;;5077119;28;19959;-61
2022/03/02 03:19:00;;;;;;;;;;;5.80;40.70;;;;;;5076863;28;20245;-59
2022/03/02 03:21:25;;;;;;;;;;;5.80;40.70;;;;;;5076744;28;19921;-60
2022/03/02 03:23:51;;;;;;;;;;;5.70;40.60;;;;;;5077162;28;19909;-64
2022/03/02 03:26:17;;;;;;;;;;;5.70;40.60;;;;;;5076773;28;19909;-60
2022/03/02 03:28:42;;;;;;;;;;;5.80;39.90;;;;;;5076994;28;19962;-65
2022/03/02 03:31:08;;;;;;;;;;;5.80;39.90;;;;;;5076957;28;19913;-63
2022/03/02 03:33:34;;;;;;;;;;;5.80;39.30;;;;;;5076775;28;20011;-60
2022/03/02 03:35:59;;;;;;;;;;;5.70;39.30;;;;;;5076683;28;19908;-60
2022/03/02 03:38:25;;;;;;;;;;;5.80;39.70;;;;;;5076477;28;19916;-61
2022/03/02 03:40:50;;;;;;;;;;;5.80;38.40;;;;;;5076491;28;19908;-61
2022/03/02 03:43:16;;;;;;;;;;;5.80;38.50;;;;;;5076732;28;19916;-60
2022/03/02 03:45:41;;;;;;;;;;;5.80;37.80;;;;;;5076244;28;19952;-60
2022/03/02 03:48:07;;;;;;;;;;;5.70;38.70;;;;;;5076572;28;19909;-71
2022/03/02 03:50:33;;;;;;;;;;;5.70;38.60;;;;;;5076408;28;19912;-61
2022/03/02 03:52:58;;;;;;;;;;;5.70;38.70;;;;;;5076266;28;20011;-60
2022/03/02 03:55:24;;;;;;;;;;;5.70;37.70;;;;;;5075848;28;19916;-60
2022/03/02 03:57:49;;;;;;;;;;;5.70;38.30;;;;;;5076510;28;19947;-61
2022/03/02 04:00:17;;;;;;;;;;;5.70;38.20;;;;;;5076689;28;19908;-59
2022/03/02 04:02:43;;;;;;;;;;;5.60;38.20;;;;;;5076465;28;20346;-61
2022/03/02 04:05:08;;;;;;;;;;;5.50;38.80;;;;;;5076073;28;19913;-58
2022/03/02 04:07:34;;;;;;;;;;;5.50;38.70;;;;;;5076161;28;20287;-60
2022/03/02 04:10:00;;;;;;;;;;;5.50;37.90;;;;;;5076134;28;20014;-58
2022/03/02 04:12:25;;;;;;;;;;;5.60;38.00;;;;;;5076272;28;19954;-59
2022/03/02 04:14:51;;;;;;;;;;;5.60;37.60;;;;;;5075849;28;19920;-60
2022/03/02 04:17:16;;;;;;;;;;;5.60;37.30;;;;;;5076100;28;20387;-59
2022/03/02 04:19:42;;;;;;;;;;;5.60;37.10;;;;;;5075890;28;19915;-60
2022/03/02 04:22:07;;;;;;;;;;;5.60;36.90;;;;;;5075891;28;19927;-59
2022/03/02 04:24:33;;;;;;;;;;;5.60;36.50;;;;;;5075734;28;20472;-59
2022/03/02 04:26:59;;;;;;;;;;;5.70;36.20;;;;;;5075801;28;19909;-61
2022/03/02 04:29:24;;;;;;;;;;;5.70;36.40;;;;;;5076486;28;20360;-60
2022/03/02 04:31:50;;;;;;;;;;;5.70;35.90;;;;;;5076041;28;19962;-60
2022/03/02 04:34:15;;;;;;;;;;;5.70;35.90;;;;;;5057842;28;19916;-60
2022/03/02 04:36:41;;;;;;;;;;;5.70;35.80;;;;;;5076200;28;19908;-61
2022/03/02 04:39:06;;;;;;;;;;;5.70;35.50;;;;;;5076544;28;20332;-61
2022/03/02 04:41:32;;;;;;;;;;;5.70;34.80;;;;;;5076076;28;19909;-60
2022/03/02 04:43:57;;;;;;;;;;;5.70;34.40;;;;;;5076854;28;19995;-64
2022/03/02 04:46:23;;;;;;;;;;;5.70;34.20;;;;;;5075658;28;19951;-60
2022/03/02 04:48:49;;;;;;;;;;;5.70;34.10;;;;;;5075407;28;19959;-60
2022/03/02 04:51:14;;;;;;;;;;;5.80;33.80;;;;;;5075560;28;19908;-61
2022/03/02 04:53:40;;;;;;;;;;;5.80;33.40;;;;;;5075375;28;19970;-59
2022/03/02 04:56:05;;;;;;;;;;;5.80;33.50;;;;;;5075392;28;19912;-60
2022/03/02 04:58:31;;;;;;;;;;;5.90;33.50;;;;;;5074957;28;19908;-60
2022/03/02 05:00:56;;;;;;;;;;;5.80;33.50;;;;;;5058043;28;20003;-60
2022/03/02 05:03:22;;;;;;;;;;;5.80;33.30;;;;;;5075192;28;19913;-60
2022/03/02 05:05:47;;;;;;;;;;;5.80;33.00;;;;;;5074796;28;19918;-59
2022/03/02 05:08:13;;;;;;;;;;;5.80;32.70;;;;;;5074464;28;19915;-60
2022/03/02 05:10:38;;;;;;;;;;;5.90;32.10;;;;;;5074887;28;19915;-60
2022/03/02 05:13:04;;;;;;;;;;;5.90;32.20;;;;;;5075105;28;20026;-62
2022/03/02 05:15:30;;;;;;;;;;;5.90;31.90;;;;;;5074883;28;19908;-64
2022/03/02 05:17:56;;;;;;;;;;;5.90;31.80;;;;;;5074594;28;19920;-60
2022/03/02 05:20:22;;;;;;;;;;;6.00;31.30;;;;;;5074466;28;19921;-63
2022/03/02 05:22:49;;;;;;;;;;;5.80;31.40;;;;;;5074660;28;20356;-61
2022/03/02 05:25:16;;;;;;;;;;;5.90;31.30;;;;;;5074491;28;19989;-61
2022/03/02 05:27:41;;;;;;;;;;;5.90;31.20;;;;;;5074918;28;19908;-60
2022/03/02 05:30:08;;;;;;;;;;;5.90;30.90;;;;;;5074838;28;20378;-60
2022/03/02 05:32:33;;;;;;;;;;;5.90;30.90;;;;;;5074509;28;19966;-60
2022/03/02 05:34:59;;;;;;;;;;;5.90;30.90;;;;;;5074442;28;19916;-60
2022/03/02 05:37:24;;;;;;;;;;;6.00;30.70;;;;;;5074375;28;19909;-59
2022/03/02 05:39:50;;;;;;;;;;;6.00;30.70;;;;;;5074619;28;19915;-61
2022/03/02 05:42:16;;;;;;;;;;;6.00;30.90;;;;;;5074586;28;20057;-63
2022/03/02 05:44:41;;;;;;;;;;;6.10;30.40;;;;;;5074228;28;19909;-59
2022/03/02 05:47:07;;;;;;;;;;;6.10;30.20;;;;;;5074623;28;20379;-60
2022/03/02 05:49:32;;;;;;;;;;;6.00;31.10;;;;;;5074337;28;20003;-59
2022/03/02 05:51:58;;;;;;;;;;;6.10;30.50;;;;;;5074379;28;20009;-60
2022/03/02 05:54:24;;;;;;;;;;;6.00;30.50;;;;;;5074155;28;19928;-60
2022/03/02 05:56:49;;;;;;;;;;;5.90;30.30;;;;;;5074228;28;20007;-60
2022/03/02 05:59:16;;;;;;;;;;;5.90;30.10;;;;;;5056216;28;19908;-64
2022/03/02 06:01:41;;;;;;;;;;;6.00;30.30;;;;;;5074364;28;19914;-60
2022/03/02 06:04:07;;;;;;;;;;;6.00;30.30;;;;;;5074479;28;20352;-63
2022/03/02 06:06:34;;;;;;;;;;;6.10;30.70;;;;;;5075575;28;20265;-60
2022/03/02 06:09:00;;;;;;;;;;;6.20;30.40;;;;;;5077195;28;19909;-59
2022/03/02 06:11:26;;;;;;;;;;;6.20;30.60;;;;;;5076984;28;19908;-59
2022/03/02 06:13:52;;;;;;;;;;;6.30;30.60;;;;;;5075946;28;19917;-60
2022/03/02 06:16:17;;;;;;;;;;;6.30;30.50;;;;;;5076175;28;20428;-61
2022/03/02 06:18:43;;;;;;;;;;;6.30;30.60;;;;;;5077247;28;19909;-61
2022/03/02 06:21:11;;;;;;;;;;;6.30;30.40;;;;;;5073806;28;20453;-61
2022/03/02 06:23:36;;;;;;;;;;;6.30;30.50;;;;;;5074121;28;19908;-70
2022/03/02 06:26:02;;;;;;;;;;;6.40;30.20;;;;;;5074013;28;19971;-68
2022/03/02 06:28:28;;;;;;;;;;;6.40;30.70;;;;;;5074030;28;19908;-64
2022/03/02 06:30:54;;;;;;;;;;;6.40;30.70;;;;;;5073805;28;19919;-69
2022/03/02 06:33:20;;;;;;;;;;;6.40;31.10;;;;;;5073936;28;19991;-60
2022/03/02 06:35:49;;;;;;;;;;;6.40;31.10;;;;;;5075214;28;19955;-60
2022/03/02 06:38:15;;;;;;;;;;;6.40;31.40;;;;;;5074601;28;19908;-60
2022/03/02 06:40:50;;;;;;;;;;;6.50;31.60;;;;;;5074416;28;19912;-60
2022/03/02 06:43:18;;;;;;;;;;;6.50;31.30;;;;;;5074322;28;19909;-61
2022/03/02 06:45:43;;;;;;;;;;;6.60;31.50;;;;;;5074298;28;19918;-64
2022/03/02 06:48:18;;;;;;;;;;;6.50;31.80;;;;;;5080224;28;19968;-62
2022/03/02 06:50:44;;;;;;;;;;;6.60;31.60;;;;;;5076817;28;19908;-60
2022/03/02 06:53:13;;;;;;;;;;;6.60;31.00;;;;;;5073163;28;19959;-62
2022/03/02 06:55:40;;;;;;;;;;;6.60;30.90;;;;;;5073485;28;19908;-61
2022/03/02 06:58:08;;;;;;;;;;;6.70;30.90;;;;;;5073756;28;19915;-61
2022/03/02 07:00:34;;;;;;;;;;;6.60;30.70;;;;;;5073857;28;19952;-60
2022/03/02 07:03:02;;;;;;;;;;;6.70;31.10;;;;;;5073430;28;19944;-59
2022/03/02 07:05:28;;;;;;;;;;;6.90;30.90;;;;;;5073235;28;19944;-61
2022/03/02 07:07:53;;;;;;;;;;;7.20;30.90;;;;;;5075387;28;19931;-61
2022/03/02 07:10:20;;;;;;;;;;;7.40;31.40;;;;;;5073419;28;19908;-63
2022/03/02 07:12:45;;;;;;;;;;;7.90;51.50;;;;;;5073523;28;19915;-62
2022/03/02 07:15:11;;;;;;;;;;;8.50;45.00;;;;;;5073609;28;20291;-62
2022/03/02 07:17:37;;;;;;;;;;;8.80;38.10;;;;;;5074033;28;19931;-67
2022/03/02 07:20:03;;;;;;;;;;;8.80;35.10;;;;;;5074181;28;19916;-61
2022/03/02 07:22:31;;;;;;;;;;;8.70;32.00;;;;;;5075072;28;19923;-60
2022/03/02 07:25:04;;;;;;;;;;;9.00;32.10;;;;;;5076640;28;19931;-60
2022/03/02 07:27:30;;;;;;;;;;;9.20;32.50;;;;;;5077240;28;19916;-59
2022/03/02 07:29:56;;;;;;;;;;;9.60;33.60;;;;;;5077838;28;19943;-59
2022/03/02 07:32:22;;;;;;;;;;;9.40;30.20;;;;;;5076887;28;19959;-59
2022/03/02 07:34:52;;;;;;;;;;;9.60;31.50;;;;;;5076568;28;19916;-59
2022/03/02 07:37:17;;;;;;;;;;;9.80;31.60;;;;;;5076274;28;19916;-60
2022/03/02 07:39:43;;;;;;;;;;;10.00;30.90;;;;;;5076809;28;20284;-59
2022/03/02 07:42:09;;;;;;;;;;;10.20;31.00;;;;;;5076495;28;20009;-61
2022/03/02 07:44:34;;;;;;;;;;;9.70;30.00;;;;;;5076660;28;19912;-60
2022/03/02 07:47:00;;;;;;;;;;;9.10;31.50;;;;;;5076611;28;19908;-59
2022/03/02 07:49:25;;;;;;;;;;;9.10;32.40;;;;;;5076410;28;20348;-60
2022/03/02 07:51:52;;;;;;;;;;;9.20;32.30;;;;;;5076162;28;19999;-61
2022/03/02 07:54:19;;;;;;;;;;;8.80;32.90;;;;;;5076356;28;19916;-60
2022/03/02 07:56:45;;;;;;;;;;;8.80;33.20;;;;;;5075791;28;20392;-60
2022/03/02 07:59:10;;;;;;;;;;;8.80;33.20;;;;;;5057259;28;19923;-59
2022/03/02 08:01:37;;;;;;;;;;;8.90;33.20;;;;;;5075101;28;19920;-59
2022/03/02 08:04:06;;;;;;;;;;;8.90;33.90;;;;;;5075824;28;19954;-61
2022/03/02 08:06:34;;;;;;;;;;;9.30;34.20;;;;;;5075678;28;19908;-62
2022/03/02 08:09:01;;;;;;;;;;;9.70;32.70;;;;;;5075533;28;19947;-74
2022/03/02 08:11:26;;;;;;;;;;;9.80;32.50;;;;;;5075570;28;20390;-60
2022/03/02 08:13:52;;;;;;;;;;;9.30;34.70;;;;;;5075386;28;19917;-61
2022/03/02 08:16:18;;;;;;;;;;;8.90;36.00;;;;;;5075311;28;20360;-65
2022/03/02 08:18:43;;;;;;;;;;;8.80;36.30;;;;;;5075912;28;19917;-71
2022/03/02 08:21:10;;;;;;;;;;;8.80;37.20;;;;;;5061741;28;19996;-73
2022/03/02 08:23:37;;;;;;;;;;;9.30;37.40;;;;;;5055631;28;20383;-62
2022/03/02 08:26:03;;;;;;;;;;;9.80;36.90;;;;;;5055218;28;19920;-64
2022/03/02 08:28:31;;;;;;;;;;;10.30;36.30;;;;;;5055651;28;19916;-62
2022/03/02 08:30:57;;;;;;;;;;;10.60;35.60;;;;;;5055536;28;19972;-61
2022/03/02 08:33:26;;;;;;;;;;;10.80;34.60;;;;;;5055502;28;20360;-69
2022/03/02 08:35:53;;;;;;;;;;;10.80;32.70;;;;;;5054969;28;19908;-59
2022/03/02 08:38:18;;;;;;;;;;;10.80;33.00;;;;;;5055655;28;19955;-59
2022/03/02 08:40:44;;;;;;;;;;;10.60;32.90;;;;;;5054969;28;19912;-59
2022/03/02 08:43:10;;;;;;;;;;;10.80;32.80;;;;;;5055279;28;20643;-60
2022/03/02 08:45:35;;;;;;;;;;;10.50;32.00;;;;;;5056216;28;19909;-58
2022/03/02 08:48:03;;;;;;;;;;;10.10;33.10;;;;;;5035848;28;20007;-65
2022/03/02 08:50:28;;;;;;;;;;;10.30;33.90;;;;;;5035676;28;19972;-59
2022/03/02 08:52:55;;;;;;;;;;;10.20;33.10;;;;;;5035195;28;19968;-59
2022/03/02 08:55:21;;;;;;;;;;;10.50;34.60;;;;;;5040989;28;19928;-62
2022/03/02 08:57:46;;;;;;;;;;;10.50;32.70;;;;;;5054985;28;20276;-59
2022/03/02 09:00:14;;;;;;;;;;;10.70;34.20;;;;;;5054660;28;20003;-60
2022/03/02 09:02:40;;;;;;;;;;;10.90;35.70;;;;;;5047851;28;19909;-61
2022/03/02 09:05:06;;;;;;;;;;;11.20;35.80;;;;;;5054683;28;19909;-60
2022/03/02 09:07:32;;;;;;;;;;;11.50;35.30;;;;;;5051983;28;19978;-61
2022/03/02 09:09:59;;;;;;;;;;;11.60;35.20;;;;;;5054188;28;19916;-58
2022/03/02 09:12:25;;;;;;;;;;;11.70;34.80;;;;;;5053755;28;19913;-61
2022/03/02 09:14:51;;;;;;;;;;;11.40;34.00;;;;;;5054143;28;19917;-67
2022/03/02 09:17:24;;;;;;;;;;;11.50;35.30;;;;;;5049246;28;20357;-58
2022/03/02 09:19:50;;;;;;;;;;;11.60;35.00;;;;;;5034059;28;19912;-61
2022/03/02 09:22:17;;;;;;;;;;;10.70;36.00;;;;;;5073694;28;19913;-62
2022/03/02 09:24:44;;;;;;;;;;;10.00;38.50;;;;;;5073806;28;19909;-64
2022/03/02 09:27:11;;;;;;;;;;;9.40;38.70;;;;;;5071408;28;19909;-63
2022/03/02 09:29:38;;;;;;;;;;;9.40;39.70;;;;;;5073664;28;19961;-64
2022/03/02 09:32:05;;;;;;;;;;;9.40;39.50;;;;;;5070923;28;19912;-61
2022/03/02 09:34:33;;;;;;;;;;;9.70;40.00;;;;;;5068101;28;19990;-59
2022/03/02 09:36:59;;;;;;;;;;;10.10;39.90;;;;;;5069299;28;19909;-60
2022/03/02 09:39:25;;;;;;;;;;;10.30;38.30;;;;;;5073487;28;19916;-60
2022/03/02 09:41:58;;;;;;;;;;;10.10;36.60;;;;;;5073590;28;20012;-59
2022/03/02 09:44:25;;;;;;;;;;;9.80;37.80;;;;;;5073766;28;20031;-60
2022/03/02 09:46:56;;;;;;;;;;;10.10;38.50;;;;;;5071472;28;20272;-59
2022/03/02 09:49:24;;;;;;;;;;;9.90;38.60;;;;;;5073753;28;19909;-61
2022/03/02 09:51:58;;;;;;;;;;;9.80;40.10;;;;;;5073427;28;20332;-58
2022/03/02 09:54:23;;;;;;;;;;;9.90;40.70;;;;;;5073108;28;19969;-59
2022/03/02 09:56:50;;;;;;;;;;;10.00;41.50;;;;;;5073417;28;19913;-62
2022/03/02 09:59:17;;;;;;;;;;;9.80;41.90;;;;;;5073809;28;19957;-59
2022/03/02 10:01:43;;;;;;;;;;;9.50;42.70;;;;;;5073911;28;20312;-61
2022/03/02 10:04:17;;;;;;;;;;;9.70;43.00;;;;;;5073806;28;19909;-59
2022/03/02 10:06:44;;;;;;;;;;;10.00;43.00;;;;;;5073949;28;19916;-59
2022/03/02 10:09:10;;;;;;;;;;;10.10;41.90;;;;;;5073823;28;20062;-62
2022/03/02 10:11:36;;;;;;;;;;;10.30;40.10;;;;;;5073717;28;20042;-64
2022/03/02 10:14:01;;;;;;;;;;;10.30;40.70;;;;;;5073825;28;19985;-67
2022/03/02 10:16:28;;;;;;;;;;;10.30;39.80;;;;;;5074914;28;19909;-63
2022/03/02 10:19:00;;;;;;;;;;;10.10;38.90;;;;;;5074064;28;20283;-60
2022/03/02 10:21:33;;;;;;;;;;;10.20;39.60;;;;;;5073664;28;19921;-60
2022/03/02 10:24:02;;;;;;;;;;;10.50;38.10;;;;;;5073835;28;19916;-61
2022/03/02 10:26:31;;;;;;;;;;;10.70;36.40;;;;;;5078171;28;19916;-66
2022/03/02 10:29:17;;;;;;;;;;;10.90;35.10;;;;;;5084463;28;19908;-59
2022/03/02 10:31:52;;;;;;;;;;;11.10;35.40;;;;;;5064738;28;19920;-67
2022/03/02 10:34:18;;;;;;;;;;;11.10;34.30;;;;;;5083310;28;19916;-60
2022/03/02 10:36:45;;;;;;;;;;;11.10;35.30;;;;;;5073881;28;20451;-62
2022/03/02 10:39:25;;;;;;;;;;;11.10;35.70;;;;;;5073804;28;19909;-63
2022/03/02 10:41:51;;;;;;;;;;;11.30;33.30;;;;;;5073444;28;20497;-63
2022/03/02 10:44:26;;;;;;;;;;;11.40;33.00;;;;;;5073463;28;19912;-60
2022/03/02 10:46:55;;;;;;;;;;;11.50;32.90;;;;;;5074038;28;19912;-62
2022/03/02 10:49:21;;;;;;;;;;;11.60;31.30;;;;;;5074296;28;19915;-61
2022/03/02 10:51:47;;;;;;;;;;;11.80;32.30;;;;;;5077231;28;19915;-61
2022/03/02 10:54:17;;;;;;;;;;;11.70;31.70;;;;;;5079804;28;19916;-61
2022/03/02 10:56:44;;;;;;;;;;;11.60;32.60;;;;;;5060203;28;20287;-62
2022/03/02 10:59:16;;;;;;;;;;;11.80;31.60;;;;;;5076350;28;19915;-60
2022/03/02 11:01:42;;;;;;;;;;;11.80;31.10;;;;;;5075956;28;19908;-60
2022/03/02 11:04:08;;;;;;;;;;;11.20;30.60;;;;;;5077137;28;20363;-60
2022/03/02 11:06:35;;;;;;;;;;;11.00;32.60;;;;;;5077711;28;19908;-59
2022/03/02 11:09:02;;;;;;;;;;;11.30;31.90;;;;;;5077412;28;19908;-61
2022/03/02 11:11:29;;;;;;;;;;;11.50;30.50;;;;;;5077263;28;19952;-59
2022/03/02 11:13:55;;;;;;;;;;;11.60;29.20;;;;;;5077099;28;19927;-59
2022/03/02 11:16:21;;;;;;;;;;;10.80;31.10;;;;;;5077210;28;19909;-59
2022/03/02 11:18:52;;;;;;;;;;;10.60;30.80;;;;;;5076938;28;19956;-62
2022/03/02 11:21:20;;;;;;;;;;;11.00;31.20;;;;;;5076833;28;19920;-63
2022/03/02 11:23:48;;;;;;;;;;;11.40;30.50;;;;;;5079229;28;19919;-60
2022/03/02 11:26:16;;;;;;;;;;;11.70;29.50;;;;;;5078749;28;19908;-61
2022/03/02 11:28:49;;;;;;;;;;;11.90;29.80;;;;;;5077889;28;20007;-59
2022/03/02 11:31:26;;;;;;;;;;;12.20;29.80;;;;;;5078154;28;19916;-60
2022/03/02 11:34:12;;;;;;;;;;;12.40;29.40;;;;;;5076667;28;19916;-59
2022/03/02 11:36:38;;;;;;;;;;;12.40;28.10;;;;;;5076080;28;19916;-62
2022/03/02 11:39:05;;;;;;;;;;;12.60;28.70;;;;;;5059127;28;20383;-59
2022/03/02 11:41:35;;;;;;;;;;;12.60;28.90;;;;;;5079060;28;19916;-59
2022/03/02 11:44:02;;;;;;;;;;;12.50;28.90;;;;;;5079115;28;19908;-59
2022/03/02 11:46:27;;;;;;;;;;;12.60;28.60;;;;;;5077002;28;19973;-61
2022/03/02 11:48:53;;;;;;;;;;;12.10;28.60;;;;;;5077064;28;19908;-59
2022/03/02 11:51:30;;;;;;;;;;;11.80;29.20;;;;;;5077027;28;19912;-62
2022/03/02 11:54:00;;;;;;;;;;;11.90;30.00;;;;;;5079190;28;20308;-59
2022/03/02 11:56:26;;;;;;;;;;;12.10;30.70;;;;;;5077530;28;19915;-61
2022/03/02 11:58:53;;;;;;;;;;;11.60;29.00;;;;;;5076458;28;19912;-60
2022/03/02 12:01:19;;;;;;;;;;;11.20;29.70;;;;;;5076886;28;19915;-59
2022/03/02 12:04:03;;;;;;;;;;;11.20;30.40;;;;;;5076533;28;19995;-60
2022/03/02 12:06:36;;;;;;;;;;;11.40;30.90;;;;;;5076420;28;19915;-60
2022/03/02 12:09:03;;;;;;;;;;;11.50;30.50;;;;;;5076661;28;19931;-60
2022/03/02 12:11:35;;;;;;;;;;;11.40;30.70;;;;;;5058629;28;20380;-59
2022/03/02 12:14:01;;;;;;;;;;;11.50;31.40;;;;;;5076283;28;19916;-60
2022/03/02 12:16:41;;;;;;;;;;;11.70;31.00;;;;;;5076279;28;19915;-61
2022/03/02 12:19:19;;;;;;;;;;;11.70;30.60;;;;;;5076531;28;19908;-59
2022/03/02 12:21:44;;;;;;;;;;;11.30;31.40;;;;;;5075893;28;19920;-59
2022/03/02 12:24:12;;;;;;;;;;;11.40;31.40;;;;;;5076321;28;20379;-61
2022/03/02 12:26:39;;;;;;;;;;;11.70;31.60;;;;;;5075796;28;19916;-60
2022/03/02 12:29:11;;;;;;;;;;;12.00;31.50;;;;;;5075953;28;19972;-59
2022/03/02 12:31:36;;;;;;;;;;;12.10;30.70;;;;;;5075886;28;19991;-60
2022/03/02 12:34:12;;;;;;;;;;;12.10;30.40;;;;;;5075650;28;20020;-60
2022/03/02 12:36:39;;;;;;;;;;;12.30;30.70;;;;;;5075763;28;19913;-59
2022/03/02 12:39:04;;;;;;;;;;;12.30;30.00;;;;;;5075568;28;19912;-59
2022/03/02 12:41:30;;;;;;;;;;;12.00;30.60;;;;;;5075899;28;19915;-59
2022/03/02 12:43:57;;;;;;;;;;;12.10;30.90;;;;;;5075614;28;20378;-73
2022/03/02 12:46:23;;;;;;;;;;;12.20;31.20;;;;;;5075580;28;20338;-59
2022/03/02 12:48:50;;;;;;;;;;;11.90;31.10;;;;;;5075406;28;19909;-59
2022/03/02 12:51:17;;;;;;;;;;;12.10;31.90;;;;;;5075611;28;19909;-59
2022/03/02 12:53:43;;;;;;;;;;;12.10;30.50;;;;;;5075557;28;20265;-59
2022/03/02 12:56:08;;;;;;;;;;;12.10;30.90;;;;;;5075573;28;19962;-60
2022/03/02 12:58:34;;;;;;;;;;;12.00;30.80;;;;;;5057654;28;19957;-61
2022/03/02 13:00:59;;;;;;;;;;;12.00;30.90;;;;;;5075578;28;20288;-61
2022/03/02 13:03:30;;;;;;;;;;;12.10;31.20;;;;;;5075864;28;19920;-60
2022/03/02 13:06:00;;;;;;;;;;;12.30;32.00;;;;;;5075580;28;19915;-64
2022/03/02 13:08:46;;;;;;;;;;;12.20;32.10;;;;;;5078183;28;19915;-60
2022/03/02 13:11:28;;;;;;;;;;;12.30;32.80;;;;;;5071932;28;19970;-59
2022/03/02 13:13:53;;;;;;;;;;;12.40;33.70;;;;;;5092404;28;19962;-59
2022/03/02 13:16:37;;;;;;;;;;;12.50;33.60;;;;;;5077423;28;19909;-59
2022/03/02 13:19:14;;;;;;;;;;;12.50;33.40;;;;;;5057361;28;19940;-59
2022/03/02 13:21:40;;;;;;;;;;;12.40;33.30;;;;;;5055083;28;20000;-60
2022/03/02 13:24:10;;;;;;;;;;;12.40;33.50;;;;;;5056238;28;19939;-62
2022/03/02 13:26:38;;;;;;;;;;;12.40;32.90;;;;;;5055368;28;20380;-65
2022/03/02 13:29:03;;;;;;;;;;;12.40;32.90;;;;;;5036375;28;19909;-62
2022/03/02 13:31:29;;;;;;;;;;;12.40;32.80;;;;;;5054674;28;19955;-60
2022/03/02 13:33:57;;;;;;;;;;;12.30;33.20;;;;;;5054355;28;19921;-64
2022/03/02 13:36:33;;;;;;;;;;;11.80;35.30;;;;;;5054489;28;19916;-60
2022/03/02 13:39:09;;;;;;;;;;;11.60;35.10;;;;;;5054100;28;19915;-61
2022/03/02 13:41:54;;;;;;;;;;;11.80;34.80;;;;;;5054265;28;19913;-63
2022/03/02 13:44:20;;;;;;;;;;;11.90;34.60;;;;;;5054061;28;19909;-62
2022/03/02 13:47:06;;;;;;;;;;;11.60;34.50;;;;;;5053951;28;20387;-66
2022/03/02 13:49:47;;;;;;;;;;;11.60;33.50;;;;;;5053884;28;19920;-61
2022/03/02 13:52:16;;;;;;;;;;;11.70;33.40;;;;;;5053975;28;19908;-66
2022/03/02 13:54:42;;;;;;;;;;;11.60;33.80;;;;;;5054459;28;20353;-62
2022/03/02 13:57:21;;;;;;;;;;;11.60;34.60;;;;;;5052753;28;19909;-62
2022/03/02 13:59:46;;;;;;;;;;;11.50;35.60;;;;;;5054249;28;20279;-61
2022/03/02 14:02:12;;;;;;;;;;;11.00;36.40;;;;;;5054192;28;19908;-61
2022/03/02 14:04:45;;;;;;;;;;;11.20;37.00;;;;;;5054261;28;20000;-62
2022/03/02 14:07:10;;;;;;;;;;;11.30;36.60;;;;;;5054819;28;19954;-61
2022/03/02 14:09:36;;;;;;;;;;;11.30;37.20;;;;;;5067093;28;19913;-61
2022/03/02 14:12:08;;;;;;;;;;;11.50;37.70;;;;;;5071385;28;19916;-62
2022/03/02 14:14:34;;;;;;;;;;;11.60;37.40;;;;;;5069344;28;19925;-65
2022/03/02 14:17:03;;;;;;;;;;;11.60;37.30;;;;;;5085742;28;19966;-63
2022/03/02 14:19:35;;;;;;;;;;;11.70;37.00;;;;;;5074396;28;19920;-63
2022/03/02 14:22:02;;;;;;;;;;;11.70;37.40;;;;;;5067801;28;20427;-63
2022/03/02 14:24:30;;;;;;;;;;;11.70;37.20;;;;;;5077530;28;19915;-61
2022/03/02 14:27:07;;;;;;;;;;;11.60;37.40;;;;;;5074004;28;19909;-61